createdAt,value
2022-07-26T00:00:54.575Z,49.60
2022-07-26T00:03:21.859Z,49.60
2022-07-26T00:05:50.286Z,49.50
2022-07-26T00:08:17.586Z,49.80
2022-07-26T00:10:48.963Z,50.30
2022-07-26T00:13:18.091Z,50.60
2022-07-26T00:15:45.883Z,50.30
2022-07-26T00:18:14.271Z,50.10
2022-07-26T00:20:42.053Z,50.30
2022-07-26T00:23:09.727Z,50.70
2022-07-26T00:25:37.585Z,50.60
2022-07-26T00:28:05.932Z,50.90
2022-07-26T00:36:11.451Z,51.40
2022-07-26T00:38:38.794Z,52.40
2022-07-26T00:41:06.991Z,51.80
2022-07-26T00:43:34.270Z,51.70
2022-07-26T00:46:03.739Z,51.50
2022-07-26T00:48:30.949Z,51.80
2022-07-26T00:50:58.260Z,51.90
2022-07-26T00:53:25.583Z,52.40
2022-07-26T00:55:53.287Z,51.70
2022-07-26T00:58:20.447Z,51.80
2022-07-26T01:00:47.709Z,51.80
2022-07-26T01:03:15.017Z,52.00
2022-07-26T01:05:42.894Z,52.20
2022-07-26T01:08:10.383Z,52.50
2022-07-26T01:10:40.660Z,52.40
2022-07-26T01:13:10.502Z,53.30
2022-07-26T01:15:39.082Z,52.40
2022-07-26T01:18:06.364Z,52.30
2022-07-26T01:20:33.504Z,52.60
2022-07-26T01:23:00.762Z,52.90
2022-07-26T01:25:43.186Z,53.30
2022-07-26T01:28:11.310Z,53.00
2022-07-26T01:30:48.007Z,53.30
2022-07-26T01:33:15.217Z,53.20
2022-07-26T01:35:42.515Z,53.10
2022-07-26T01:38:11.241Z,53.50
2022-07-26T01:40:38.412Z,53.40
2022-07-26T01:43:05.608Z,53.40
2022-07-26T01:45:32.819Z,53.30
2022-07-26T01:48:00.147Z,53.40
2022-07-26T01:50:27.686Z,53.70
2022-07-26T01:52:54.867Z,53.80
2022-07-26T01:55:22.071Z,53.80
2022-07-26T01:57:49.253Z,53.80
2022-07-26T02:00:16.774Z,53.90
2022-07-26T02:02:44.034Z,53.60
2022-07-26T02:05:12.689Z,53.20
2022-07-26T02:07:44.460Z,53.30
2022-07-26T02:10:13.213Z,53.90
2022-07-26T02:12:42.630Z,53.90
2022-07-26T02:15:11.413Z,54.40
2022-07-26T02:17:38.757Z,55.80
2022-07-26T02:20:07.949Z,55.30
2022-07-26T02:22:35.829Z,56.10
2022-07-26T02:25:05.531Z,57.30
2022-07-26T02:27:33.246Z,57.30
2022-07-26T02:30:00.488Z,58.10
2022-07-26T02:32:27.758Z,58.20
2022-07-26T02:34:54.894Z,58.50
2022-07-26T02:37:22.165Z,58.50
2022-07-26T02:39:49.284Z,58.50
2022-07-26T02:42:16.484Z,59.10
2022-07-26T02:44:43.591Z,59.00
2022-07-26T02:47:12.680Z,59.10
2022-07-26T02:49:40.065Z,58.70
2022-07-26T02:52:07.309Z,59.00
2022-07-26T02:54:34.490Z,59.30
2022-07-26T02:57:01.851Z,59.60
2022-07-26T02:59:29.478Z,60.00
2022-07-26T03:01:56.690Z,59.70
2022-07-26T03:04:24.161Z,59.50
2022-07-26T03:06:51.386Z,60.50
2022-07-26T03:09:18.585Z,59.70
2022-07-26T03:11:45.793Z,60.60
2022-07-26T03:14:13.130Z,61.30
2022-07-26T03:16:40.378Z,61.30
2022-07-26T03:19:07.533Z,61.70
2022-07-26T03:21:34.711Z,62.00
2022-07-26T03:24:01.888Z,62.60
2022-07-26T03:26:29.499Z,62.30
2022-07-26T03:28:56.940Z,63.00
2022-07-26T03:31:24.260Z,63.00
2022-07-26T03:33:51.438Z,63.60
2022-07-26T03:36:18.801Z,63.50
2022-07-26T03:38:46.047Z,65.00
2022-07-26T03:41:13.650Z,65.20
2022-07-26T03:43:41.732Z,66.70
2022-07-26T03:46:09.197Z,67.80
2022-07-26T03:48:36.593Z,68.30
2022-07-26T03:51:04.070Z,68.40
2022-07-26T03:53:31.293Z,68.50
2022-07-26T03:56:18.162Z,68.90
2022-07-26T03:58:45.468Z,69.60
2022-07-26T04:01:12.703Z,69.10
2022-07-26T04:03:42.174Z,71.30
2022-07-26T04:06:14.981Z,71.30
2022-07-26T04:08:42.809Z,72.40
2022-07-26T04:11:09.962Z,72.70
2022-07-26T04:13:37.228Z,74.00
2022-07-26T04:16:04.612Z,75.20
2022-07-26T04:18:32.101Z,74.20
2022-07-26T04:20:59.722Z,75.80
2022-07-26T04:23:26.893Z,75.10
2022-07-26T04:25:54.133Z,76.30
2022-07-26T04:28:21.568Z,77.50
2022-07-26T04:30:49.949Z,78.50
2022-07-26T04:33:17.158Z,79.00
2022-07-26T04:35:44.406Z,78.90
2022-07-26T04:38:11.566Z,79.00
2022-07-26T04:40:40.722Z,78.10
2022-07-26T04:43:10.098Z,79.00
2022-07-26T04:45:42.938Z,78.20
2022-07-26T04:48:10.140Z,77.70
2022-07-26T04:50:37.820Z,77.10
2022-07-26T04:53:05.175Z,77.50
2022-07-26T04:55:32.697Z,77.30
2022-07-26T04:58:00.001Z,77.50
2022-07-26T05:00:27.183Z,77.50
2022-07-26T05:02:57.737Z,78.00
2022-07-26T05:05:26.882Z,77.50
2022-07-26T05:07:57.061Z,77.50
2022-07-26T05:10:33.930Z,77.50
2022-07-26T05:13:04.112Z,77.20
2022-07-26T05:15:35.556Z,77.70
2022-07-26T05:18:10.406Z,76.70
2022-07-26T05:20:38.959Z,76.40
2022-07-26T05:23:06.481Z,75.70
2022-07-26T05:25:33.905Z,75.80
2022-07-26T05:28:01.167Z,75.70
2022-07-26T05:30:28.553Z,75.80
2022-07-26T05:32:55.804Z,75.20
2022-07-26T05:35:24.898Z,75.90
2022-07-26T05:37:52.152Z,76.60
2022-07-26T05:40:19.601Z,76.70
2022-07-26T05:42:46.794Z,77.70
2022-07-26T05:45:14.088Z,76.80
2022-07-26T05:47:41.240Z,77.80
2022-07-26T05:50:08.886Z,78.60
2022-07-26T05:52:36.086Z,80.40
2022-07-26T05:55:03.375Z,79.00
2022-07-26T05:57:30.620Z,80.90
2022-07-26T05:59:58.159Z,85.10
2022-07-26T06:02:25.850Z,85.30
2022-07-26T06:04:53.135Z,86.60
2022-07-26T06:07:20.645Z,86.00
2022-07-26T06:09:47.902Z,86.90
2022-07-26T06:12:15.190Z,89.10
2022-07-26T06:14:42.463Z,90.00
2022-07-26T06:17:15.819Z,89.70
2022-07-26T06:19:47.548Z,89.50
2022-07-26T06:22:15.579Z,90.40
2022-07-26T06:24:42.798Z,90.10
2022-07-26T06:27:10.014Z,90.40
2022-07-26T06:29:37.215Z,90.30
2022-07-26T06:32:04.580Z,90.40
2022-07-26T06:34:31.916Z,91.90
2022-07-26T06:36:59.209Z,90.60
2022-07-26T06:39:26.557Z,90.50
2022-07-26T06:41:53.733Z,91.70
2022-07-26T06:44:20.907Z,91.50
2022-07-26T06:46:48.300Z,92.20
2022-07-26T06:49:21.946Z,91.80
2022-07-26T06:51:49.687Z,91.70
2022-07-26T06:54:16.993Z,91.90
2022-07-26T06:56:45.831Z,92.20
2022-07-26T06:59:13.059Z,92.30
2022-07-26T07:01:51.562Z,91.70
2022-07-26T07:04:29.503Z,91.80
2022-07-26T07:06:57.591Z,91.30
2022-07-26T07:09:25.515Z,91.90
2022-07-26T07:11:57.387Z,91.90
2022-07-26T07:14:28.189Z,92.20
2022-07-26T07:16:56.612Z,92.10
2022-07-26T07:19:24.670Z,91.90
2022-07-26T07:21:52.317Z,91.90
2022-07-26T07:24:25.899Z,91.50
2022-07-26T07:26:53.180Z,91.10
2022-07-26T07:29:20.442Z,90.70
2022-07-26T07:31:49.748Z,90.10
2022-07-26T07:34:23.855Z,90.00
2022-07-26T07:36:51.884Z,89.80
2022-07-26T07:39:19.642Z,89.20
2022-07-26T07:41:48.547Z,89.30
2022-07-26T07:44:15.879Z,89.80
2022-07-26T07:46:45.693Z,89.80
2022-07-26T07:49:13.409Z,89.20
2022-07-26T07:51:40.836Z,89.60
2022-07-26T07:54:09.349Z,90.00
2022-07-26T07:56:36.604Z,89.90
2022-07-26T07:59:04.546Z,90.10
2022-07-26T08:01:39.443Z,90.10
2022-07-26T08:04:09.255Z,89.60
2022-07-26T08:06:36.999Z,90.10
2022-07-26T08:09:06.518Z,90.30
2022-07-26T08:11:34.569Z,90.30
2022-07-26T08:14:02.323Z,90.20
2022-07-26T08:16:29.862Z,90.10
2022-07-26T08:18:58.559Z,90.00
2022-07-26T08:21:28.139Z,90.00
2022-07-26T08:23:57.515Z,89.60
2022-07-26T08:26:27.325Z,89.70
2022-07-26T08:28:59.873Z,89.60
2022-07-26T08:31:30.916Z,89.70
2022-07-26T08:33:58.384Z,89.50
2022-07-26T08:36:31.953Z,90.00
2022-07-26T08:39:01.213Z,89.80
2022-07-26T08:41:28.987Z,90.30
2022-07-26T08:44:05.495Z,89.70
2022-07-26T08:46:38.565Z,89.50
2022-07-26T08:49:12.363Z,89.80
2022-07-26T08:51:43.268Z,89.20
2022-07-26T08:54:13.846Z,88.80
2022-07-26T08:56:49.155Z,88.50
2022-07-26T08:59:21.671Z,88.70
2022-07-26T09:02:01.553Z,88.10
2022-07-26T09:04:33.186Z,87.90
2022-07-26T09:07:13.816Z,87.50
2022-07-26T09:09:56.281Z,86.40
2022-07-26T09:12:25.628Z,86.30
2022-07-26T09:14:54.267Z,85.80
2022-07-26T09:17:24.225Z,85.80
2022-07-26T09:20:40.231Z,85.30
2022-07-26T09:23:12.012Z,84.70
2022-07-26T09:25:41.950Z,85.20
2022-07-26T09:28:44.932Z,85.50
2022-07-26T09:31:13.635Z,85.50
2022-07-26T09:33:49.028Z,85.60
2022-07-26T09:36:21.020Z,85.50
2022-07-26T09:38:53.990Z,85.30
2022-07-26T09:41:22.352Z,85.40
2022-07-26T09:43:54.011Z,85.20
2022-07-26T09:46:26.542Z,85.10
2022-07-26T09:49:11.900Z,84.70
2022-07-26T09:51:46.203Z,84.80
2022-07-26T09:54:20.257Z,84.50
2022-07-26T09:56:51.740Z,84.10
2022-07-26T09:59:22.983Z,83.80
2022-07-26T10:01:52.939Z,84.10
2022-07-26T10:04:21.213Z,83.90
2022-07-26T10:06:50.178Z,83.80
2022-07-26T10:09:20.257Z,83.60
2022-07-26T10:12:00.813Z,83.70
2022-07-26T10:14:42.934Z,84.00
2022-07-26T10:17:31.433Z,83.70
2022-07-26T10:20:09.401Z,83.90
2022-07-26T10:22:51.018Z,83.70
2022-07-26T10:25:18.301Z,83.10
2022-07-26T10:27:52.072Z,83.00
2022-07-26T10:30:22.734Z,82.60
2022-07-26T10:33:20.280Z,82.50
2022-07-26T10:35:49.881Z,82.10
2022-07-26T10:38:26.016Z,80.30
2022-07-26T10:40:56.378Z,79.90
2022-07-26T10:43:40.237Z,80.10
2022-07-26T10:46:20.809Z,78.90
2022-07-26T10:49:03.760Z,79.10
2022-07-26T10:51:34.794Z,79.00
2022-07-26T10:54:12.080Z,77.60
2022-07-26T10:56:40.156Z,77.60
2022-07-26T10:59:07.804Z,78.10
2022-07-26T11:01:41.587Z,78.00
2022-07-26T11:04:25.427Z,77.80
2022-07-26T11:06:54.433Z,77.70
2022-07-26T11:09:23.672Z,77.40
2022-07-26T11:11:52.552Z,76.30
2022-07-26T11:14:19.844Z,75.50
2022-07-26T11:16:53.063Z,74.60
2022-07-26T11:19:23.436Z,74.80
2022-07-26T11:22:01.773Z,73.90
2022-07-26T11:24:29.533Z,72.30
2022-07-26T11:27:02.331Z,73.70
2022-07-26T11:29:38.716Z,72.10
2022-07-26T11:32:23.146Z,70.80
2022-07-26T11:35:04.581Z,70.50
2022-07-26T11:37:32.091Z,69.20
2022-07-26T11:39:59.298Z,70.10
2022-07-26T11:42:26.495Z,68.90
2022-07-26T11:44:56.058Z,69.10
2022-07-26T11:47:25.897Z,69.20
2022-07-26T11:50:13.872Z,65.50
2022-07-26T11:52:41.926Z,66.30
2022-07-26T11:55:12.063Z,65.10
2022-07-26T11:57:39.302Z,65.60
2022-07-26T12:00:07.275Z,63.70
2022-07-26T12:02:35.783Z,65.00
2022-07-26T12:05:20.770Z,65.30
2022-07-26T12:08:00.750Z,64.10
2022-07-26T12:10:29.751Z,64.20
2022-07-26T12:13:17.231Z,63.20
2022-07-26T12:15:52.854Z,62.90
2022-07-26T12:18:28.740Z,63.00
2022-07-26T12:21:07.032Z,63.50
2022-07-26T12:23:46.495Z,63.80
2022-07-26T12:26:20.416Z,63.70
2022-07-26T12:28:47.696Z,62.10
2022-07-26T12:31:31.353Z,61.60
2022-07-26T12:33:59.036Z,62.80
2022-07-26T12:36:28.055Z,62.20
2022-07-26T12:39:01.371Z,61.60
2022-07-26T12:41:37.366Z,61.80
2022-07-26T12:44:06.323Z,61.70
2022-07-26T12:46:37.715Z,61.40
2022-07-26T12:49:05.480Z,61.00
2022-07-26T12:51:32.842Z,58.40
2022-07-26T12:54:00.649Z,59.70
2022-07-26T12:56:28.018Z,60.30
2022-07-26T12:59:01.773Z,60.60
2022-07-26T13:01:31.397Z,60.70
2022-07-26T13:04:00.999Z,61.30
2022-07-26T13:06:28.331Z,63.30
2022-07-26T13:08:56.826Z,68.10
2022-07-26T13:11:25.948Z,70.50
2022-07-26T13:13:53.284Z,71.70
2022-07-26T13:16:25.138Z,73.80
2022-07-26T13:18:53.849Z,72.60
2022-07-26T13:21:24.066Z,72.60
2022-07-26T13:23:51.326Z,73.60
2022-07-26T13:26:18.815Z,75.80
2022-07-26T13:28:49.575Z,74.50
2022-07-26T13:31:18.361Z,76.00
2022-07-26T13:33:47.114Z,73.80
2022-07-26T13:36:14.516Z,73.90
2022-07-26T13:38:42.880Z,75.70
2022-07-26T13:41:10.317Z,78.90
2022-07-26T13:43:37.484Z,77.70
2022-07-26T13:46:04.968Z,78.10
2022-07-26T13:48:33.592Z,79.60
2022-07-26T13:51:00.963Z,80.90
2022-07-26T13:53:30.068Z,81.90
2022-07-26T13:55:59.669Z,79.60
2022-07-26T13:58:26.924Z,81.30
2022-07-26T14:00:54.247Z,80.00
2022-07-26T14:03:22.924Z,81.40
2022-07-26T14:05:50.193Z,80.10
2022-07-26T14:08:20.104Z,79.40
2022-07-26T14:10:50.981Z,80.00
2022-07-26T14:13:19.438Z,80.60
2022-07-26T14:15:46.747Z,79.50
2022-07-26T14:18:15.350Z,79.20
2022-07-26T14:20:43.777Z,79.80
2022-07-26T14:23:11.958Z,81.30
2022-07-26T14:25:45.190Z,80.40
2022-07-26T14:28:12.677Z,81.60
2022-07-26T14:30:47.900Z,82.40
2022-07-26T14:33:15.346Z,82.00
2022-07-26T14:35:44.097Z,81.40
2022-07-26T14:38:11.831Z,81.80
2022-07-26T14:40:39.886Z,81.60
2022-07-26T14:43:07.489Z,82.00
2022-07-26T14:45:34.725Z,82.60
2022-07-26T14:48:01.985Z,82.80
2022-07-26T14:50:38.512Z,82.10
2022-07-26T14:53:18.892Z,81.80
2022-07-26T14:55:46.213Z,80.70
2022-07-26T15:01:02.817Z,78.90
2022-07-26T15:06:18.903Z,79.00
2022-07-26T15:09:11.480Z,78.60
2022-07-26T15:11:43.409Z,78.70
2022-07-26T15:19:41.586Z,78.00
2022-07-26T15:22:09.640Z,78.00
2022-07-26T15:24:40.134Z,77.90
2022-07-26T15:27:08.054Z,77.70
2022-07-26T15:29:38.775Z,77.50
2022-07-26T15:32:06.850Z,77.30
2022-07-26T15:34:34.360Z,77.10
2022-07-26T15:37:01.713Z,76.90
2022-07-26T15:39:28.921Z,76.40
2022-07-26T15:41:56.182Z,76.90
2022-07-26T15:44:25.490Z,76.60
2022-07-26T15:52:24.109Z,76.70
2022-07-26T15:54:53.267Z,76.80
2022-07-26T16:03:21.031Z,76.50
2022-07-26T16:05:56.991Z,77.20
2022-07-26T16:09:14.010Z,76.80
2022-07-26T16:11:47.197Z,77.00
2022-07-26T16:14:34.777Z,76.50
2022-07-26T16:20:33.364Z,76.60
2022-07-26T16:26:25.940Z,76.30
2022-07-26T16:28:54.542Z,76.20
2022-07-26T16:31:28.375Z,75.50
2022-07-26T16:33:55.797Z,74.50
2022-07-26T16:36:23.485Z,74.10
2022-07-26T16:38:50.717Z,75.00
2022-07-26T16:41:18.043Z,74.70
2022-07-26T16:43:45.520Z,74.60
2022-07-26T16:46:14.476Z,72.70
2022-07-26T16:48:41.918Z,73.20
2022-07-26T16:51:09.173Z,73.50
2022-07-26T16:53:36.361Z,74.10
2022-07-26T16:56:03.565Z,74.40
2022-07-26T16:58:30.764Z,75.20
2022-07-26T17:00:58.154Z,75.90
2022-07-26T17:03:25.708Z,75.70
2022-07-26T17:05:52.926Z,76.20
2022-07-26T17:08:20.469Z,76.80
2022-07-26T17:10:47.716Z,76.90
2022-07-26T17:13:14.924Z,76.90
2022-07-26T17:15:42.112Z,77.40
2022-07-26T17:18:09.309Z,77.30
2022-07-26T17:20:37.231Z,77.10
2022-07-26T17:23:04.961Z,77.00
2022-07-26T17:25:32.386Z,77.20
2022-07-26T17:27:59.705Z,77.70
2022-07-26T17:30:28.393Z,77.90
2022-07-26T17:32:55.876Z,77.90
2022-07-26T17:35:23.100Z,78.80
2022-07-26T17:37:50.457Z,79.10
2022-07-26T17:40:18.029Z,78.90
2022-07-26T17:42:45.827Z,79.00
2022-07-26T17:45:13.154Z,79.70
2022-07-26T17:47:41.522Z,79.50
2022-07-26T17:50:34.013Z,79.20
2022-07-26T17:52:56.519Z,79.00
2022-07-26T17:55:24.213Z,79.20
2022-07-26T17:57:54.648Z,79.10
2022-07-26T18:00:26.320Z,79.30
2022-07-26T18:02:59.860Z,80.00
2022-07-26T18:05:33.346Z,79.20
2022-07-26T18:08:03.336Z,79.50
2022-07-26T18:10:30.492Z,79.40
2022-07-26T18:12:57.621Z,79.20
2022-07-26T18:15:24.946Z,79.70
2022-07-26T18:17:52.265Z,80.30
2022-07-26T18:20:19.759Z,80.30
2022-07-26T18:22:50.269Z,82.30
2022-07-26T18:25:18.112Z,82.40
2022-07-26T18:27:47.866Z,82.00
2022-07-26T18:30:15.148Z,82.50
2022-07-26T18:32:42.313Z,84.00
2022-07-26T18:35:11.870Z,85.30
2022-07-26T18:37:40.574Z,86.30
2022-07-26T18:40:08.877Z,87.40
2022-07-26T18:42:37.879Z,88.60
2022-07-26T18:45:06.583Z,87.80
2022-07-26T18:47:33.866Z,89.20
2022-07-26T18:50:01.117Z,89.10
2022-07-26T18:52:31.912Z,90.70
2022-07-26T18:55:11.728Z,90.80
2022-07-26T18:57:41.354Z,91.40
2022-07-26T19:00:11.847Z,92.10
2022-07-26T19:02:44.549Z,91.80
2022-07-26T19:05:16.479Z,92.40
2022-07-26T19:07:44.037Z,93.10
2022-07-26T19:10:13.236Z,93.30
2022-07-26T19:12:40.951Z,93.10
2022-07-26T19:15:09.155Z,93.10
2022-07-26T19:17:37.231Z,93.70
2022-07-26T19:20:06.818Z,93.30
2022-07-26T19:22:34.211Z,94.00
2022-07-26T19:25:01.517Z,93.60
2022-07-26T19:27:29.088Z,94.20
2022-07-26T19:29:57.243Z,95.30
2022-07-26T19:32:30.361Z,94.70
2022-07-26T19:35:09.082Z,94.70
2022-07-26T19:37:38.266Z,94.50
2022-07-26T19:40:06.660Z,94.30
2022-07-26T19:42:42.485Z,93.60
2022-07-26T19:45:12.133Z,93.40
2022-07-26T19:47:41.714Z,93.70
2022-07-26T19:50:12.027Z,94.70
2022-07-26T19:52:42.390Z,95.10
2022-07-26T19:55:15.666Z,94.30
2022-07-26T19:57:47.202Z,94.70
2022-07-26T20:00:15.066Z,95.80
2022-07-26T20:02:43.154Z,95.40
2022-07-26T20:05:12.669Z,95.50
2022-07-26T20:07:41.737Z,94.90
2022-07-26T20:10:12.175Z,94.80
2022-07-26T20:12:42.969Z,95.00
2022-07-26T20:15:11.281Z,94.40
2022-07-26T20:17:42.894Z,94.20
2022-07-26T20:20:11.281Z,94.20
2022-07-26T20:22:41.539Z,93.90
2022-07-26T20:25:21.081Z,93.90
2022-07-26T20:27:52.259Z,93.80
2022-07-26T20:30:19.613Z,93.60
2022-07-26T20:32:46.973Z,93.60
2022-07-26T20:35:14.475Z,93.40
2022-07-26T20:37:43.228Z,93.20
2022-07-26T20:40:14.927Z,93.10
2022-07-26T20:48:18.178Z,92.40
2022-07-26T20:50:47.930Z,92.30
2022-07-26T21:07:11.392Z,90.70
2022-07-26T21:09:39.016Z,90.60
2022-07-26T21:14:55.898Z,90.10
2022-07-26T21:17:23.574Z,90.10
2022-07-26T21:20:09.015Z,90.00
2022-07-26T21:22:39.656Z,89.80
2022-07-26T21:25:11.457Z,89.40
2022-07-26T21:27:39.509Z,89.00
2022-07-26T21:30:11.238Z,88.90
2022-07-26T21:32:46.086Z,88.70
2022-07-26T21:35:15.588Z,88.10
2022-07-26T21:37:46.313Z,87.90
2022-07-26T21:40:15.187Z,88.00
2022-07-26T21:45:26.667Z,87.30
2022-07-26T21:47:55.310Z,87.50
2022-07-26T21:50:32.637Z,87.40
2022-07-26T21:53:01.503Z,87.40
2022-07-26T21:55:38.658Z,87.30
2022-07-26T21:58:06.523Z,87.10
2022-07-26T22:00:40.111Z,87.10
2022-07-26T22:03:08.090Z,87.10
2022-07-26T22:05:40.645Z,87.00
2022-07-26T22:08:22.549Z,87.00
2022-07-26T22:10:50.122Z,87.00
2022-07-26T22:13:18.290Z,87.00
2022-07-26T22:16:09.925Z,87.00
2022-07-26T22:18:53.817Z,87.00
2022-07-26T22:24:55.762Z,86.80
2022-07-26T22:27:29.055Z,86.90
2022-07-26T22:30:03.247Z,86.70
2022-07-26T22:32:35.379Z,86.70
2022-07-26T22:35:03.027Z,86.70
2022-07-26T22:37:32.821Z,87.20
2022-07-26T22:40:00.542Z,87.80
2022-07-26T22:42:38.417Z,87.80
2022-07-26T22:45:30.011Z,88.30
2022-07-26T22:53:45.743Z,87.90
2022-07-26T22:56:55.045Z,88.00
2022-07-26T23:05:13.933Z,87.90
2022-07-26T23:07:41.552Z,87.80
2022-07-26T23:10:12.992Z,87.80
2022-07-26T23:12:40.550Z,87.80
2022-07-26T23:15:11.180Z,87.80
2022-07-26T23:17:38.974Z,87.70
2022-07-26T23:20:09.742Z,87.80
2022-07-26T23:22:38.434Z,87.80
2022-07-26T23:25:06.567Z,87.70
2022-07-26T23:27:38.299Z,87.70
2022-07-26T23:30:06.658Z,87.70
2022-07-26T23:32:37.034Z,87.60
2022-07-26T23:35:07.411Z,87.60
2022-07-26T23:37:34.966Z,87.60
2022-07-26T23:40:04.852Z,87.60
2022-07-26T23:42:34.061Z,87.60
2022-07-26T23:45:02.915Z,87.50
2022-07-26T23:47:33.844Z,87.60
2022-07-26T23:50:07.949Z,87.70
2022-07-26T23:52:40.296Z,87.70
2022-07-26T23:55:08.642Z,87.70
2022-07-26T23:57:37.544Z,88.00
